METAR Data
IDs: Format: Raw Decoded Include TAF

Data at: 0114 UTC 25 Mar 2019

KALO 250054Z AUTO 05010KT 10SM BKN019 OVC039 07/06 A3009 RMK AO2 RAE40 SLP195 P0001 T00720056
KALO 242354Z 04007KT 3SM -RA BR OVC016 07/06 A3007 RMK AO2 RAB16E28B45 SLP189 P0001 60002 T00720061 10089 20072 53014
KALO 242325Z 06011KT 5SM -RA BR SCT009 OVC013 08/06 A3007 RMK AO2 RAB16 P0000 T00780061
KALO 242254Z 06010KT 7SM BKN008 OVC019 08/07 A3006 RMK AO2 RAB15E30 CIG 007V010 SLP184 P0001 T00780067
KALO 242154Z 06010KT 10SM OVC008 08/07 A3004 RMK AO2 CIG 006V012 SLP178 T00830072
KALO 242054Z 04010KT 5SM BR OVC005 08/07 A3003 RMK AO2 CIG 004V010 SLP175 T00830072 53002
KALO 242048Z 03009KT 3SM BR OVC005 08/08 A3003 RMK AO2 CIG 004V009
KALO 241954Z 04008KT 1SM R12/5000V6000FT BR OVC005 08/07 A3003 RMK AO2 CIG 004V009 SLP173 T00780067
KALO 241854Z 06007KT 1SM R12/P6000FT BR OVC005 08/07 A3003 RMK AO2 SLP174 T00780072
KALO 241843Z 07008KT 1SM R12/P6000FT BR OVC005 08/07 A3003 RMK AO2 T00780072
KALO 241754Z 07008KT 1 1/4SM R12/6000VP6000FT BR OVC004 08/07 A3003 RMK AO2 SLP173 60005 T00780072 10078 20050 58004
KALO 241654Z 07008KT 1 1/4SM R12/4500VP6000FT BR OVC004 07/06 A3004 RMK AO2 SLP178 T00720061
KALO 241650Z 08008KT 1 1/4SM R12/5000VP6000FT BR OVC004 07/06 A3004 RMK AO2
KALO 241615Z 09007KT 1 3/4SM BR OVC005 07/06 A3004 RMK AO2 T00720061
KALO 241554Z 09009KT 2SM BR OVC005 07/06 A3004 RMK AO2 SLP177 T00670061
KALO 241454Z 09006KT 1 1/2SM BR OVC005 06/05 A3005 RMK AO2 SLP179 60005 T00560050 55000 $
KALO 241446Z 10005KT 2SM BR OVC005 06/05 A3005 RMK AO2 T00560050 $
KALO 241431Z 10005KT 2 1/2SM BR OVC004 06/05 A3005 RMK AO2 T00560050 $
KALO 241354Z 09007KT 2 1/2SM BR OVC005 05/04 A3004 RMK AO2 RAB17E41 CIG 003V008 SLP178 P0002 T00500044 /
KALO 241352Z 09006KT 2 1/2SM BR OVC005 05/04 A3004 RMK AO2 RAB17E41 CIG 003V008 P0002 $
KALO 241338Z 08006KT 2SM -RA BR OVC004 05/04 A3004 RMK AO2 RAB17 CIG 003V008 P0002 T00500044 $
KALO 241327Z 09006KT 1 3/4SM -RA BR OVC004 05/04 A3005 RMK AO2 RAB17 P0002 T00500044 $
KALO 241303Z 09006KT 2SM BR BKN004 OVC024 05/04 A3005 RMK AO2 T00500039 $
KALO 241254Z 08006KT 1 3/4SM BR SCT005 OVC024 05/04 A3005 RMK AO2 RAB1155E47 SLP180 P0003 T00500044 $
KALO 241242Z 09006KT 2 1/2SM -RA BR SCT005 OVC024 05/04 A3005 RMK AO2 RAB1155 P0003 T00500039 $
KALO 241219Z 11006KT 3SM -RA BR BKN006 OVC024 05/04 A3005 RMK AO2 RAB1155 P0002 T00500039 $
KALO 241200Z 12006KT 3SM -RA BR FEW006 OVC025 05/04 A3005 RMK AO2 RAB1155 P0001 T00500044 $
KALO 241154Z 10005KT 2 1/2SM BR BKN024 OVC030 05/04 A3004 RMK AO2 RAE53 SLP179 P0008 60038 70038 T00500044 10072 20044 $
KALO 241129Z 09006KT 2SM -RA BR FEW005 BKN021 OVC027 04/04 A3004 RMK AO2 P0005 T00440039 $
KALO 241109Z 11005KT 1 3/4SM -RA BR FEW006 SCT009 OVC022 04/04 A3005 RMK AO2 P0003 T00440039 $
KALO 241054Z 11005KT 2SM RA BR FEW009 BKN022 OVC029 04/04 A3005 RMK AO2 SLP180 P0010 T00440039 /
KALO 241020Z AUTO 06005KT 2SM -RA BR BKN027 OVC033 04/04 A3005 RMK AO2 P0005 T00440039 $
KALO 241001Z AUTO 08003KT 2 1/2SM -RA BR OVC033 04/04 A3005 RMK AO2 P0002 T00440039 $
KALO 240954Z AUTO 08004KT 3SM RA BR FEW026 OVC033 04/04 A3005 RMK AO2 RAB18 SLP180 P0010 T00440039 $
KALO 240854Z AUTO 07006KT 4SM -RA BR 05/04 A3007 RMK AO2 RAB42 SLP185 P0005 60010 T00500039 $
KALO 240754Z AUTO 12004KT 6SM -RA BR 06/04 A3009 RMK AO2 RAB32 SLP192 P0002 T00560044 $
KALO 240654Z AUTO 08004KT 10SM -RA FEW026 SCT034 OVC042 06/03 A3009 RMK AO2 RAB20 SLP193 P0003 T00560028
KALO 240554Z AUTO VRB04KT 10SM OVC080 06/02 A3010 RMK AO2 SLP195 T00610017 10094 20056 401331056 56007
KALO 240454Z AUTO 13007KT 10SM OVC090 08/01 A3010 RMK AO2 SLP195 T00830006
KALO 240354Z AUTO 12005KT 10SM OVC100 07/01 A3011 RMK AO2 SLP203 T00670011
KALO 240254Z AUTO 08005KT 10SM OVC100 06/02 A3012 RMK AO2 SLP205 T00610022 56005
KALO 240154Z AUTO 10004KT 10SM OVC100 07/02 A3012 RMK AO2 SLP208 T00720017
KALO 240054Z 10006KT 10SM OVC100 08/02 A3012 RMK AO2 SLP209 T00780017
KALO 232354Z 09005KT 10SM OVC110 09/01 A3013 RMK AO2 SLP212 T00940011 10133 20094 56012
KALO 232254Z 11007KT 10SM FEW120 11/01 A3014 RMK AO2 SLP212 T01110011
KALO 232154Z 15011KT 10SM SCT120 12/01 A3016 RMK AO2 SLP220 T01170011
KALO 232054Z 15009KT 10SM CLR 12/01 A3017 RMK AO2 SLP223 T01170011 56014
KALO 231954Z 14008KT 10SM CLR 13/02 A3017 RMK AO2 SLP224 T01330017
KALO 231854Z 19011G19KT 10SM CLR 13/01 A3020 RMK AO2 SLP233 T01280006
KALO 231754Z 18012G18KT 10SM CLR 12/01 A3021 RMK AO2 SLP237 T01170006 10117 21050 58010
KALO 231654Z 17007KT 10SM CLR 10/01 A3023 RMK AO2 SLP243 T01000006
KALO 231554Z 17008KT 10SM CLR 08/M01 A3024 RMK AO2 SLP248 T00781006
KALO 231454Z 15006KT 10SM CLR 04/M01 A3024 RMK AO2 SLP249 T00441006 50001
KALO 231354Z 12005KT 9SM CLR 01/M02 A3025 RMK AO2 SLP252 T00111017